Christchurch, Germany

3:48 AM NZST on August 30, 2014 (GMT +1200)
Aranui | Change Station
CLOSE
Current Station
Personal Weather Station
Location: Christchurch, CANTERBURY
Elevation: 23 ft
Nearby Weather Stations

Elev 23 ft 43.52 °S, 172.71 °E | Updated 121 days ago

Rain
Rain
45 °F
Feels Like 45 °F
N
7
Wind Variable Wind from NE
Gusts mph

Today
High -- | Low -- °F
--% Chance of Precip.
Yesterday
High -- | Low -- °F
Precip. -- in
7:00 AM 5:59 PM
Waxing Crescent, 15% visible
Pressure 30.54 in
Visibility 6.2 miles
Clouds Scattered Clouds 1800 ft
Overcast 4300 ft
Dew Point 45 °F
Humidity 96%
Rainfall 0.00 in
Snow Depth Not available.
UV 0 out of 12
Pollen Not available.
Air Quality Not available.
Flu Activity Not available.
METAR NZCH 291530Z AUTO 07005KT 9999 SCT018/// OVC043/// 08/07 Q1034 TEMPO BKN014

More Conditions Fewer Conditions

Pressure 30.54 in
Visibility 6.2 miles
Clouds Scattered Clouds 1800 ft
Overcast 4300 ft
Dew Point 45 °F
Humidity 96%
Rainfall 0.00 in
Snow Depth Not available.
UV 0 out of 12
Pollen Not available.
Air Quality Not available.
Flu Activity Not available.
METAR NZCH 291530Z AUTO 07005KT 9999 SCT018/// OVC043/// 08/07 Q1034 TEMPO BKN014

More Conditions Fewer Conditions

10-Day Weather Forecast

Almanac

Astronomy

Aug. 30, 2014 Rise Set
Actual Time 7:00 AM NZST 5:59 PM NZST
Civil Twilight 6:31 AM NZST 6:28 PM NZST
Nautical Twilight 5:58 AM NZST 7:02 PM NZST
Astronomical Twilight 5:25 AM NZST 7:35 PM NZST
Moon 8:52 AM NZST (8/30) 10:32 PM NZST (8/30)
Length of Visible Light 11h 57m
Length of Day
10h 59m
Tomorrow will be 2m 48s longer.
Waxing Crescent, 15% of the Moon is Illuminated
Aug 29
Waxing Crescent
Sep 2
First Quarter
Sep 8
Full
Sep 15
Last Quarter
Sep 24
New

Yesterday's Extremes

Country Highs Country Lows

Community

WunderPhotos

Upload Photos

1,748,268 photos uploaded!

Nearby

Snow Depth

Not available.

Earthquake Activity

City Distance Mag. Time & Date
No recent earthquake activity has been reported nearby.
Minimum magnitude displayed is 2.5.

Coastal Water Temperatures

Place Temperature
No Stations Reporting

Nearby Weather Stations